HTPE/PMA METAR and TAF weather

Enter ICAO airport designator
Station Type Date Time Source
HTPE METAR 2021/05/06 00:00 UTC NOAA

HTPE 060000Z 18005KT 9999 FEW014 BKN070 26/23 Q1011


Station Type Date Time Source
HTPE Decoded METAR 2021/05/06 00:00 UTC NOAA

Pemba / Karume Airport, Tanzania (HTPE) 05-15S 039-49E
May 05, 2021 - 08:00 PM EDT / 2021.05.06 0000 UTC
Wind: from the S (180 degrees) at 6 MPH (5 KT):0
Visibility: greater than 7 mile(s):0
Sky conditions: mostly cloudy
Temperature: 78 F (26 C)
Dew Point: 73 F (23 C)
Relative Humidity: 83%
Pressure (altimeter): 29.85 in. Hg (1011 hPa)
ob: HTPE 060000Z 18005KT 9999 FEW014 BKN070 26/23 Q1011
cycle: 0

Station Type Date Time Source
HTPE TAF 2012/09/13 12:46 UTC NOAA

TAF HTPE 131000Z 1312/1412 16010KT 9999 SHRA SCT024 BKN080
BECMG 1315/1318 SCT021
BECMG 1321/1324 12005KT FEW019
BECMG 1403/1406 17005KT SCT018
BECMG 1409/1412 15010KT 9999 FEW024

Example: see airport list